Time;durP1;ratioP1;P1;durP2;ratioP2;P2;SDS_P1;SDS_P2;PMS_P1;PMS_P2;Temp;Humidity;BMP_temperature;BMP_pressure;BME280_temperature;BME280_humidity;BME280_pressure;Samples;Min_cycle;Max_cycle;Signal;HPM_P1;HPM_P2
2024/02/02 00:02:09;;;;;;;4.30;1.15;;;3.90;96.20;;;;;;5018803;28;20147;-66
2024/02/02 00:04:34;;;;;;;5.10;1.52;;;3.90;96.20;;;;;;5013624;28;20427;-67
2024/02/02 00:07:00;;;;;;;6.05;1.60;;;3.90;96.30;;;;;;5022666;28;20052;-67
2024/02/02 00:09:25;;;;;;;2.88;1.27;;;3.80;96.30;;;;;;5036497;28;20132;-66
2024/02/02 00:11:51;;;;;;;4.60;1.25;;;3.80;96.40;;;;;;5028107;28;20037;-67
2024/02/02 00:14:16;;;;;;;3.42;1.35;;;3.80;96.40;;;;;;5027195;28;20052;-66
2024/02/02 00:16:41;;;;;;;6.05;2.20;;;3.80;96.40;;;;;;5025407;28;20083;-66
2024/02/02 00:19:07;;;;;;;2.25;1.42;;;3.70;96.50;;;;;;5023806;28;20083;-66
2024/02/02 00:21:32;;;;;;;5.93;1.20;;;3.70;96.60;;;;;;5010212;28;20029;-66
2024/02/02 00:23:58;;;;;;;2.42;1.20;;;3.60;96.60;;;;;;5027862;28;20423;-67
2024/02/02 00:26:24;;;;;;;3.42;1.65;;;3.60;96.80;;;;;;5031910;28;20048;-66
2024/02/02 00:28:50;;;;;;;3.20;1.38;;;3.60;96.80;;;;;;5029334;28;20057;-66
2024/02/02 00:31:21;;;;;;;4.55;1.98;;;3.60;96.90;;;;;;5038043;28;20175;-67
2024/02/02 00:33:47;;;;;;;5.20;1.75;;;3.50;97.00;;;;;;5028887;28;20457;-67
2024/02/02 00:36:12;;;;;;;5.70;2.63;;;3.50;97.20;;;;;;5035091;28;20096;-66
2024/02/02 00:38:38;;;;;;;5.32;2.42;;;3.50;97.20;;;;;;5034802;28;20033;-66
2024/02/02 00:41:03;;;;;;;5.70;2.13;;;3.50;97.30;;;;;;5026111;28;20034;-66
2024/02/02 00:43:29;;;;;;;6.53;2.05;;;3.50;97.30;;;;;;5027887;28;20029;-66
2024/02/02 00:45:54;;;;;;;5.50;2.22;;;3.50;97.30;;;;;;5020914;28;20259;-67
2024/02/02 00:48:20;;;;;;;4.05;1.77;;;3.50;97.30;;;;;;5023208;28;20355;-66
2024/02/02 00:50:45;;;;;;;6.47;1.67;;;3.50;97.40;;;;;;5040651;28;20464;-67
2024/02/02 00:53:11;;;;;;;7.10;1.98;;;3.50;97.40;;;;;;5033255;28;20034;-67
2024/02/02 00:55:37;;;;;;;4.93;1.65;;;3.50;97.40;;;;;;5027682;28;20116;-67
2024/02/02 00:58:02;;;;;;;2.95;1.65;;;3.50;97.30;;;;;;5026289;28;20467;-66
2024/02/02 01:00:28;;;;;;;5.80;1.75;;;3.60;97.30;;;;;;5036782;28;20048;-66
2024/02/02 01:02:53;;;;;;;4.53;1.50;;;3.60;97.30;;;;;;5025564;28;20100;-66
2024/02/02 01:05:19;;;;;;;3.55;1.15;;;3.60;97.30;;;;;;5039391;28;20505;-67
2024/02/02 01:07:44;;;;;;;4.78;1.60;;;3.60;97.20;;;;;;5041272;28;20096;-66
2024/02/02 01:10:16;;;;;;;3.38;1.10;;;3.70;97.20;;;;;;5023881;28;20029;-66
2024/02/02 01:12:42;;;;;;;3.22;1.20;;;3.70;97.20;;;;;;5033117;28;20109;-67
2024/02/02 01:15:08;;;;;;;3.20;1.80;;;3.70;97.20;;;;;;5027807;28;20056;-66
2024/02/02 01:17:34;;;;;;;3.03;1.55;;;3.70;97.10;;;;;;5035900;28;20090;-66
2024/02/02 01:20:03;;;;;;;2.72;1.17;;;3.70;97.10;;;;;;5032829;28;20120;-66
2024/02/02 01:22:29;;;;;;;5.70;1.85;;;3.70;97.10;;;;;;5034666;28;20347;-66
2024/02/02 01:24:54;;;;;;;3.40;1.60;;;3.80;97.10;;;;;;5032334;28;20128;-66
2024/02/02 01:27:20;;;;;;;3.63;1.25;;;3.80;97.00;;;;;;5031593;28;20055;-66
2024/02/02 01:29:45;;;;;;;3.78;1.10;;;3.80;97.10;;;;;;5029575;28;20124;-66
2024/02/02 01:32:10;;;;;;;1.45;0.88;;;3.80;97.00;;;;;;5028402;28;20127;-67
2024/02/02 01:34:36;;;;;;;1.67;1.15;;;3.80;97.00;;;;;;5026486;28;20057;-67
2024/02/02 01:37:01;;;;;;;5.75;1.30;;;3.80;97.10;;;;;;5025284;28;20458;-67
2024/02/02 01:39:27;;;;;;;7.05;2.10;;;3.80;97.10;;;;;;5032312;28;20126;-67
2024/02/02 01:41:52;;;;;;;2.25;1.42;;;3.80;97.10;;;;;;5031363;28;20075;-67
2024/02/02 01:44:18;;;;;;;2.65;0.82;;;3.90;97.10;;;;;;5018746;28;20057;-66
2024/02/02 01:46:47;;;;;;;3.28;1.25;;;3.80;97.10;;;;;;5026727;28;20077;-66
2024/02/02 01:49:13;;;;;;;3.13;1.23;;;3.80;97.10;;;;;;5020253;28;20407;-66
2024/02/02 01:51:39;;;;;;;1.80;1.08;;;3.80;97.00;;;;;;5035055;28;20036;-66
2024/02/02 01:54:05;;;;;;;3.72;1.60;;;3.90;97.00;;;;;;5030573;28;20049;-67
2024/02/02 01:56:31;;;;;;;4.20;1.15;;;3.90;97.00;;;;;;5037974;28;20470;-66
2024/02/02 01:58:56;;;;;;;2.83;1.25;;;4.00;97.00;;;;;;5027303;28;20034;-67
2024/02/02 02:01:22;;;;;;;3.17;1.35;;;4.00;97.00;;;;;;5031780;28;20354;-66
2024/02/02 02:03:48;;;;;;;6.05;2.13;;;4.00;96.90;;;;;;5022098;28;20361;-67
2024/02/02 02:06:13;;;;;;;5.20;1.83;;;4.00;97.00;;;;;;5033443;28;20029;-67
2024/02/02 02:08:39;;;;;;;3.53;1.33;;;4.00;97.00;;;;;;5027371;28;20157;-67
2024/02/02 02:11:06;;;;;;;4.50;1.55;;;4.10;97.00;;;;;;5029183;28;20118;-66
2024/02/02 02:13:32;;;;;;;3.88;1.83;;;4.10;97.00;;;;;;5028730;28;20494;-67
2024/02/02 02:15:58;;;;;;;5.85;2.63;;;4.10;97.00;;;;;;5009251;28;20568;-66
2024/02/02 02:18:23;;;;;;;3.35;1.65;;;4.10;97.00;;;;;;5016842;28;20093;-66
2024/02/02 02:20:50;;;;;;;6.25;1.58;;;4.10;97.00;;;;;;5024830;28;20514;-67
2024/02/02 02:23:16;;;;;;;4.38;1.90;;;4.10;97.00;;;;;;5027230;28;20406;-67
2024/02/02 02:25:45;;;;;;;3.35;1.45;;;4.10;97.00;;;;;;5026138;28;20036;-66
2024/02/02 02:28:11;;;;;;;3.50;1.55;;;4.10;97.00;;;;;;5028051;28;20025;-66
2024/02/02 02:30:36;;;;;;;3.78;2.15;;;4.10;97.00;;;;;;5028979;28;20051;-67
2024/02/02 02:33:02;;;;;;;6.38;2.00;;;4.10;97.00;;;;;;5027783;28;20052;-67
2024/02/02 02:35:27;;;;;;;3.85;1.67;;;4.10;97.00;;;;;;5031386;28;20111;-66
2024/02/02 02:37:53;;;;;;;6.03;2.33;;;4.20;96.90;;;;;;5032505;28;20398;-66
2024/02/02 02:40:19;;;;;;;4.47;1.70;;;4.10;97.00;;;;;;5012198;28;20115;-67
2024/02/02 02:42:44;;;;;;;6.88;2.10;;;4.20;97.00;;;;;;5035445;28;20041;-66
2024/02/02 02:45:10;;;;;;;6.80;2.05;;;4.20;97.10;;;;;;5030800;28;20474;-67
2024/02/02 02:47:35;;;;;;;4.28;2.13;;;4.20;97.00;;;;;;5037717;28;20051;-67
2024/02/02 02:50:00;;;;;;;7.57;3.75;;;4.20;96.90;;;;;;5027669;28;20369;-67
2024/02/02 02:52:26;;;;;;;4.63;1.63;;;4.20;97.00;;;;;;5026944;28;20033;-67
2024/02/02 02:54:51;;;;;;;4.75;2.25;;;4.20;97.00;;;;;;5031678;28;20411;-67
2024/02/02 02:57:17;;;;;;;5.03;2.40;;;4.20;97.10;;;;;;5028156;28;20134;-66
2024/02/02 02:59:42;;;;;;;5.70;2.65;;;4.20;97.10;;;;;;5034633;28;20033;-66
2024/02/02 03:02:08;;;;;;;4.70;2.33;;;4.20;97.10;;;;;;5030601;28;20029;-66
2024/02/02 03:04:33;;;;;;;6.10;2.35;;;4.20;97.10;;;;;;5032260;28;20056;-66
2024/02/02 03:07:00;;;;;;;3.38;1.50;;;4.30;97.10;;;;;;5036783;28;20046;-67
2024/02/02 03:09:25;;;;;;;2.17;1.55;;;4.20;97.10;;;;;;5035689;28;20177;-67
2024/02/02 03:11:50;;;;;;;12.52;3.15;;;4.20;97.20;;;;;;5040764;28;20199;-67
2024/02/02 03:14:16;;;;;;;4.70;1.88;;;4.20;97.20;;;;;;5023831;28;20049;-66
2024/02/02 03:16:42;;;;;;;5.20;2.25;;;4.20;97.10;;;;;;5029895;28;20448;-66
2024/02/02 03:19:07;;;;;;;4.75;2.47;;;4.30;97.20;;;;;;5018110;28;20182;-66
2024/02/02 03:21:34;;;;;;;6.10;2.28;;;4.20;97.20;;;;;;5028218;28;20029;-67
2024/02/02 03:24:00;;;;;;;4.30;2.25;;;4.20;97.20;;;;;;5024871;28;20021;-67
2024/02/02 03:26:25;;;;;;;4.53;2.58;;;4.30;97.30;;;;;;5033440;28;20376;-66
2024/02/02 03:28:51;;;;;;;7.72;2.42;;;4.30;97.20;;;;;;5029184;28;20083;-66
2024/02/02 03:31:16;;;;;;;6.93;2.22;;;4.20;97.30;;;;;;5031415;28;20145;-67
2024/02/02 03:33:42;;;;;;;7.63;3.22;;;4.20;97.40;;;;;;5030232;28;20041;-66
2024/02/02 03:36:08;;;;;;;6.55;2.72;;;4.30;97.40;;;;;;5027540;28;20074;-67
2024/02/02 03:38:33;;;;;;;8.82;3.53;;;4.30;97.40;;;;;;5027865;28;20037;-66
2024/02/02 03:40:58;;;;;;;6.68;2.88;;;4.30;97.40;;;;;;5026288;28;20091;-67
2024/02/02 03:43:24;;;;;;;7.45;2.88;;;4.30;97.40;;;;;;5026564;28;20072;-66
2024/02/02 03:45:49;;;;;;;10.88;3.80;;;4.30;97.40;;;;;;5029179;28;20175;-66
2024/02/02 03:48:15;;;;;;;10.23;3.60;;;4.30;97.40;;;;;;5022644;28;20049;-67
2024/02/02 03:50:40;;;;;;;6.03;3.08;;;4.30;97.50;;;;;;5028780;28;20025;-66
2024/02/02 03:53:06;;;;;;;6.82;2.88;;;4.30;97.50;;;;;;5029112;28;20371;-67
2024/02/02 03:55:31;;;;;;;8.32;3.30;;;4.30;97.40;;;;;;5009108;28;20044;-67
2024/02/02 03:57:57;;;;;;;7.10;3.15;;;4.30;97.40;;;;;;5034330;28;20061;-66
2024/02/02 04:00:22;;;;;;;10.63;3.50;;;4.30;97.40;;;;;;5023693;28;20037;-66
2024/02/02 04:02:49;;;;;;;10.90;3.78;;;4.30;97.50;;;;;;5027990;28;20387;-66
2024/02/02 04:05:15;;;;;;;7.82;3.00;;;4.30;97.50;;;;;;5021806;28;20343;-68
2024/02/02 04:07:41;;;;;;;7.18;3.70;;;4.30;97.50;;;;;;5026443;28;20025;-66
2024/02/02 04:10:07;;;;;;;6.18;3.00;;;4.40;97.50;;;;;;5027181;28;20067;-67
2024/02/02 04:12:32;;;;;;;8.75;3.05;;;4.40;97.40;;;;;;5025727;28;20036;-66
2024/02/02 04:14:58;;;;;;;6.63;3.35;;;4.40;97.40;;;;;;5022405;28;20442;-66
2024/02/02 04:17:23;;;;;;;9.32;3.70;;;4.40;97.40;;;;;;5005430;28;20029;-66
2024/02/02 04:19:49;;;;;;;7.43;3.65;;;4.40;97.40;;;;;;5024175;28;20029;-66
2024/02/02 04:22:16;;;;;;;10.60;3.03;;;4.40;97.40;;;;;;5026681;28;20048;-66
2024/02/02 04:24:43;;;;;;;9.45;3.20;;;4.40;97.40;;;;;;5021809;28;20025;-65
2024/02/02 04:27:08;;;;;;;6.43;3.58;;;4.40;97.40;;;;;;5027357;28;20383;-66
2024/02/02 04:29:34;;;;;;;8.43;4.07;;;4.40;97.40;;;;;;5026303;28;20037;-66
2024/02/02 04:31:59;;;;;;;8.07;3.47;;;4.50;97.40;;;;;;5025075;28;20446;-66
2024/02/02 04:34:25;;;;;;;9.90;3.55;;;4.50;97.40;;;;;;5019658;28;20037;-67
2024/02/02 04:36:50;;;;;;;9.13;3.83;;;4.50;97.40;;;;;;5030848;28;20037;-66
2024/02/02 04:39:16;;;;;;;8.32;3.95;;;4.60;97.30;;;;;;5033167;28;20144;-66
2024/02/02 04:41:41;;;;;;;9.68;4.32;;;4.50;97.30;;;;;;5032233;28;20033;-66
2024/02/02 04:44:07;;;;;;;7.10;3.13;;;4.60;97.30;;;;;;5029716;28;20041;-66
2024/02/02 04:46:32;;;;;;;10.85;4.10;;;4.60;97.30;;;;;;5025310;28;20037;-66
2024/02/02 04:48:58;;;;;;;9.93;3.97;;;4.60;97.20;;;;;;5027480;28;20040;-67
2024/02/02 04:51:23;;;;;;;10.23;4.60;;;4.60;97.30;;;;;;5039157;28;20052;-66
2024/02/02 04:53:49;;;;;;;6.82;3.53;;;4.60;97.30;;;;;;5034703;28;20037;-65
2024/02/02 04:56:15;;;;;;;8.20;4.20;;;4.60;97.20;;;;;;5030517;28;20502;-66
2024/02/02 04:58:40;;;;;;;6.57;3.60;;;4.60;97.20;;;;;;5028974;28;20037;-65
2024/02/02 05:01:06;;;;;;;7.03;4.30;;;4.60;97.10;;;;;;5031754;28;20048;-66
2024/02/02 05:03:31;;;;;;;8.73;4.03;;;4.60;97.20;;;;;;5033643;28;20405;-66
2024/02/02 05:05:57;;;;;;;7.15;3.72;;;4.60;97.10;;;;;;5029392;28;20083;-67
2024/02/02 05:08:23;;;;;;;9.40;4.32;;;4.60;97.20;;;;;;5027464;28;20048;-66
2024/02/02 05:10:48;;;;;;;8.88;3.83;;;4.60;97.20;;;;;;5029696;28;20397;-66
2024/02/02 05:13:14;;;;;;;8.38;4.10;;;4.60;97.10;;;;;;5026935;28;20049;-66
2024/02/02 05:15:40;;;;;;;6.47;3.22;;;4.60;97.10;;;;;;5028896;28;20451;-67
2024/02/02 05:18:06;;;;;;;9.00;4.28;;;4.60;97.10;;;;;;5028336;28;20025;-66
2024/02/02 05:20:32;;;;;;;8.05;4.35;;;4.60;97.10;;;;;;5027150;28;20049;-66
2024/02/02 05:22:58;;;;;;;7.90;3.60;;;4.60;97.00;;;;;;5029368;28;20473;-67
2024/02/02 05:25:23;;;;;;;6.82;3.58;;;4.60;96.90;;;;;;5024443;28;20551;-66
2024/02/02 05:27:49;;;;;;;8.43;4.45;;;4.60;96.90;;;;;;5029929;28;20133;-66
2024/02/02 05:30:14;;;;;;;8.07;4.13;;;4.60;96.90;;;;;;5028709;28;20033;-66
2024/02/02 05:32:40;;;;;;;6.65;3.17;;;4.60;97.00;;;;;;5028074;28;20049;-65
2024/02/02 05:35:06;;;;;;;13.18;3.92;;;4.60;97.00;;;;;;5028799;28;20055;-64
2024/02/02 05:37:32;;;;;;;7.10;3.38;;;4.60;97.00;;;;;;5036661;28;20112;-65
2024/02/02 05:39:58;;;;;;;10.27;4.43;;;4.60;97.10;;;;;;5037084;28;20033;-66
2024/02/02 05:42:24;;;;;;;7.30;3.72;;;4.60;97.10;;;;;;5033744;28;20025;-65
2024/02/02 05:44:49;;;;;;;7.45;3.58;;;4.60;97.10;;;;;;5024739;28;20084;-65
2024/02/02 05:47:15;;;;;;;7.85;3.67;;;4.60;97.10;;;;;;5033500;28;20135;-67
2024/02/02 05:49:40;;;;;;;8.50;3.42;;;4.60;97.00;;;;;;5027485;28;20041;-66
2024/02/02 05:52:08;;;;;;;12.93;5.13;;;4.60;97.00;;;;;;5039220;28;20029;-64
2024/02/02 05:54:35;;;;;;;6.97;2.85;;;4.60;97.00;;;;;;5026320;28;20406;-64
2024/02/02 05:57:01;;;;;;;9.57;4.18;;;4.60;97.10;;;;;;5030306;28;20025;-64
2024/02/02 05:59:26;;;;;;;6.45;3.40;;;4.60;97.20;;;;;;5035351;28;20040;-64
2024/02/02 06:01:51;;;;;;;7.22;4.05;;;4.50;97.50;;;;;;5029391;28;20064;-65
2024/02/02 06:04:17;;;;;;;8.30;3.15;;;4.50;97.60;;;;;;5027329;28;20088;-64
2024/02/02 06:06:42;;;;;;;8.57;4.57;;;4.40;97.60;;;;;;5036880;28;20096;-66
2024/02/02 06:09:11;;;;;;;9.05;3.50;;;4.40;97.80;;;;;;5012291;28;20116;-65
2024/02/02 06:11:36;;;;;;;11.23;4.32;;;4.40;97.80;;;;;;5029217;28;20487;-64
2024/02/02 06:14:02;;;;;;;7.97;3.50;;;4.40;97.90;;;;;;5027870;28;20037;-65
2024/02/02 06:16:27;;;;;;;7.97;3.92;;;4.40;97.90;;;;;;5026987;28;20061;-64
2024/02/02 06:18:54;;;;;;;9.60;4.30;;;4.30;97.90;;;;;;5026510;28;20424;-65
2024/02/02 06:21:19;;;;;;;7.38;3.70;;;4.30;98.00;;;;;;5025864;28;20029;-64
2024/02/02 06:23:45;;;;;;;6.32;3.72;;;4.40;97.90;;;;;;5027426;28;20038;-64
2024/02/02 06:26:10;;;;;;;8.27;3.50;;;4.40;97.90;;;;;;5023748;28;20041;-64
2024/02/02 06:28:36;;;;;;;9.10;3.42;;;4.30;97.90;;;;;;5025921;28;20037;-65
2024/02/02 06:31:01;;;;;;;7.38;4.05;;;4.30;98.00;;;;;;5027830;28;20104;-65
2024/02/02 06:33:27;;;;;;;8.82;3.55;;;4.30;98.00;;;;;;5024837;28;20049;-66
2024/02/02 06:35:52;;;;;;;11.88;3.38;;;4.30;97.90;;;;;;5028043;28;20084;-65
2024/02/02 06:38:18;;;;;;;6.72;3.30;;;4.30;97.90;;;;;;5027361;28;20026;-66
2024/02/02 06:40:43;;;;;;;11.35;4.35;;;4.30;98.00;;;;;;5031173;28;20166;-64
2024/02/02 06:43:09;;;;;;;8.70;3.13;;;4.30;98.00;;;;;;5031644;28;20443;-65
2024/02/02 06:45:34;;;;;;;7.93;3.67;;;4.30;98.00;;;;;;5027064;28;20048;-66
2024/02/02 06:48:00;;;;;;;7.32;3.63;;;4.30;97.90;;;;;;5035433;28;20359;-66
2024/02/02 06:50:26;;;;;;;10.98;4.00;;;4.30;97.80;;;;;;5025773;28;20124;-65
2024/02/02 06:52:52;;;;;;;8.05;3.83;;;4.40;97.60;;;;;;5028710;28;20113;-65
2024/02/02 06:55:17;;;;;;;6.57;3.35;;;4.40;97.50;;;;;;5026967;28;20036;-65
2024/02/02 06:57:43;;;;;;;6.18;3.28;;;4.40;97.40;;;;;;5033087;28;20439;-64
2024/02/02 07:00:13;;;;;;;6.90;3.92;;;4.40;97.30;;;;;;5030573;28;20033;-64
2024/02/02 07:02:38;;;;;;;7.30;3.88;;;4.40;97.40;;;;;;5029267;28;20029;-65
2024/02/02 07:05:04;;;;;;;7.47;4.20;;;4.40;97.30;;;;;;5025598;28;20139;-65
2024/02/02 07:07:30;;;;;;;6.50;3.30;;;4.40;97.30;;;;;;5027801;28;20064;-65
2024/02/02 07:09:58;;;;;;;10.13;3.83;;;4.40;97.20;;;;;;5029506;28;20061;-64
2024/02/02 07:12:46;;;;;;;11.82;4.65;;;4.50;97.20;;;;;;5026647;28;20076;-65
2024/02/02 07:15:17;;;;;;;6.20;3.70;;;4.50;97.10;;;;;;5029739;28;20057;-64
2024/02/02 07:17:45;;;;;;;7.68;4.03;;;4.60;96.80;;;;;;5010513;28;20097;-64
2024/02/02 07:20:22;;;;;;;12.00;5.00;;;4.60;96.70;;;;;;5025097;28;20048;-65
2024/02/02 07:22:54;;;;;;;9.90;4.50;;;4.60;96.60;;;;;;5023287;28;20041;-66
2024/02/02 07:25:21;;;;;;;7.93;4.07;;;4.60;96.60;;;;;;5022215;28;20137;-65
2024/02/02 07:28:05;;;;;;;7.35;4.05;;;4.60;96.60;;;;;;5031766;28;20036;-66
2024/02/02 07:30:30;;;;;;;9.13;4.25;;;4.60;96.20;;;;;;5026484;28;20458;-66
2024/02/02 07:32:57;;;;;;;11.90;4.28;;;4.70;96.00;;;;;;5028056;28;20160;-65
2024/02/02 07:35:35;;;;;;;5.80;3.88;;;4.60;96.00;;;;;;5026982;28;20164;-65
2024/02/02 07:38:04;;;;;;;7.13;3.70;;;4.60;96.00;;;;;;5033144;28;20494;-65
2024/02/02 07:40:30;;;;;;;10.77;4.20;;;4.70;96.10;;;;;;5008038;28;20103;-64
2024/02/02 07:42:56;;;;;;;6.57;3.75;;;4.60;96.10;;;;;;5027100;28;20037;-65
2024/02/02 07:45:21;;;;;;;6.28;3.25;;;4.60;96.10;;;;;;5027954;28;20040;-65
2024/02/02 07:47:47;;;;;;;8.32;4.15;;;4.60;96.00;;;;;;5027948;28;20026;-65
2024/02/02 07:50:12;;;;;;;8.70;3.45;;;4.60;95.90;;;;;;5034846;28;20069;-65
2024/02/02 07:52:38;;;;;;;6.85;3.15;;;4.70;95.80;;;;;;5032932;28;20395;-65
2024/02/02 07:55:04;;;;;;;7.03;4.07;;;4.70;95.70;;;;;;5029572;28;20443;-64
2024/02/02 07:57:29;;;;;;;8.30;3.25;;;4.70;95.80;;;;;;5031289;28;20033;-65
2024/02/02 07:59:55;;;;;;;14.10;3.58;;;4.70;95.80;;;;;;5038384;28;20029;-65
2024/02/02 08:02:22;;;;;;;9.18;4.18;;;4.70;95.60;;;;;;5032635;28;20171;-67
2024/02/02 08:04:48;;;;;;;13.35;3.88;;;4.70;95.60;;;;;;5037483;28;20056;-65
2024/02/02 08:07:13;;;;;;;7.97;3.35;;;4.80;95.40;;;;;;5024679;28;20061;-64
2024/02/02 08:09:39;;;;;;;8.43;4.22;;;4.80;95.50;;;;;;5030393;28;20029;-64
2024/02/02 08:12:05;;;;;;;8.48;4.00;;;4.80;95.40;;;;;;5026860;28;20647;-65
2024/02/02 08:14:30;;;;;;;10.63;3.42;;;4.80;95.10;;;;;;5024195;28;20021;-64
2024/02/02 08:16:56;;;;;;;8.77;3.83;;;4.90;95.00;;;;;;5031395;28;20067;-64
2024/02/02 08:19:21;;;;;;;7.55;3.28;;;4.80;95.10;;;;;;5029035;28;20085;-65
2024/02/02 08:21:46;;;;;;;7.60;3.72;;;4.90;95.20;;;;;;5035627;28;20442;-64
2024/02/02 08:24:12;;;;;;;8.98;3.88;;;4.90;95.20;;;;;;5023445;28;20149;-65
2024/02/02 08:26:37;;;;;;;7.57;3.75;;;4.90;95.10;;;;;;5038057;28;20025;-65
2024/02/02 08:29:03;;;;;;;9.40;3.88;;;5.00;94.70;;;;;;5005751;28;20121;-64
2024/02/02 08:31:29;;;;;;;7.72;3.38;;;5.00;94.80;;;;;;5026623;28;20365;-65
2024/02/02 08:33:54;;;;;;;6.38;3.63;;;5.00;94.60;;;;;;5010170;28;20025;-64
2024/02/02 08:36:20;;;;;;;7.25;3.63;;;5.10;94.60;;;;;;5024081;28;20048;-66
2024/02/02 08:38:46;;;;;;;8.93;4.28;;;5.10;94.70;;;;;;5029284;28;20439;-66
2024/02/02 08:41:11;;;;;;;7.50;3.88;;;5.10;94.70;;;;;;5026814;28;20033;-65
2024/02/02 08:43:37;;;;;;;9.60;3.70;;;5.10;94.60;;;;;;5030514;28;20033;-67
2024/02/02 08:46:06;;;;;;;10.30;4.05;;;5.10;94.40;;;;;;5024735;28;20040;-66
2024/02/02 08:48:40;;;;;;;7.25;4.25;;;5.10;94.40;;;;;;5023497;28;20033;-67
2024/02/02 08:51:21;;;;;;;8.02;4.38;;;5.10;94.10;;;;;;5029583;28;20025;-66
2024/02/02 08:53:47;;;;;;;8.85;3.35;;;5.10;94.20;;;;;;5025852;28;20056;-66
2024/02/02 08:56:14;;;;;;;11.38;4.97;;;5.10;94.10;;;;;;5024350;28;20381;-65
2024/02/02 08:58:41;;;;;;;6.97;3.78;;;5.10;94.20;;;;;;5025814;28;20025;-66
2024/02/02 09:01:21;;;;;;;7.53;3.65;;;5.10;94.20;;;;;;5029634;28;20060;-66
2024/02/02 09:03:47;;;;;;;6.55;3.90;;;5.20;93.90;;;;;;5023898;28;20413;-66
2024/02/02 09:06:39;;;;;;;8.45;4.40;;;5.20;93.70;;;;;;5024732;28;20060;-66
2024/02/02 09:09:05;;;;;;;8.38;4.05;;;5.20;94.00;;;;;;5026163;28;20080;-66
2024/02/02 09:11:31;;;;;;;7.55;3.25;;;5.20;94.00;;;;;;5025569;28;20087;-66
2024/02/02 09:14:06;;;;;;;7.07;4.20;;;5.20;94.00;;;;;;5025368;28;20091;-67
2024/02/02 09:16:42;;;;;;;11.18;4.45;;;5.20;93.90;;;;;;5021995;28;20437;-66
2024/02/02 09:19:19;;;;;;;12.43;4.68;;;5.30;93.80;;;;;;5024736;28;20018;-66
2024/02/02 09:21:45;;;;;;;12.18;4.47;;;5.30;93.70;;;;;;5024766;28;20510;-66
2024/02/02 09:24:51;;;;;;;8.82;4.78;;;5.30;93.70;;;;;;5023872;28;20049;-66
2024/02/02 09:27:36;;;;;;;7.07;4.43;;;5.30;93.60;;;;;;5018059;28;20389;-66
2024/02/02 09:30:15;;;;;;;6.07;3.75;;;5.40;93.70;;;;;;5022820;28;20123;-67
2024/02/02 09:32:44;;;;;;;6.97;4.13;;;5.40;93.30;;;;;;5027415;28;20102;-66
2024/02/02 09:35:28;;;;;;;8.27;4.38;;;5.40;93.30;;;;;;5028413;28;20033;-66
2024/02/02 09:37:53;;;;;;;9.07;4.40;;;5.40;93.50;;;;;;5033298;28;20041;-65
2024/02/02 09:40:56;;;;;;;6.35;4.00;;;5.50;93.30;;;;;;5025377;28;20041;-65
2024/02/02 09:43:25;;;;;;;10.05;4.15;;;5.50;93.30;;;;;;5027833;28;20029;-65
2024/02/02 09:46:17;;;;;;;7.93;4.07;;;5.50;93.30;;;;;;5025195;28;20033;-65
2024/02/02 09:49:13;;;;;;;7.47;4.25;;;5.60;93.30;;;;;;5027713;28;20390;-66
2024/02/02 09:51:44;;;;;;;8.13;4.85;;;5.60;93.40;;;;;;5025811;28;20029;-65
2024/02/02 09:54:21;;;;;;;9.07;5.18;;;5.60;93.40;;;;;;5033569;28;20029;-66
2024/02/02 09:57:04;;;;;;;13.63;4.22;;;5.60;93.30;;;;;;5030668;28;20059;-67
2024/02/02 09:59:57;;;;;;;9.30;3.75;;;5.70;93.30;;;;;;5033476;28;20025;-66
2024/02/02 10:02:28;;;;;;;8.98;4.68;;;5.70;93.20;;;;;;5024699;28;20337;-67
2024/02/02 10:05:13;;;;;;;11.82;4.75;;;5.70;93.20;;;;;;5032978;28;20034;-67
2024/02/02 10:08:15;;;;;;;10.95;4.50;;;5.80;93.10;;;;;;5030342;28;20074;-66
2024/02/02 10:11:09;;;;;;;8.05;3.50;;;5.80;93.20;;;;;;5032067;28;20032;-67
2024/02/02 10:13:49;;;;;;;9.20;3.85;;;5.80;93.50;;;;;;5012837;28;20053;-66
2024/02/02 10:16:28;;;;;;;11.52;5.32;;;5.80;93.60;;;;;;5030231;28;20428;-66
2024/02/02 10:19:17;;;;;;;10.90;5.45;;;5.80;93.90;;;;;;5028733;28;20041;-66
2024/02/02 10:22:01;;;;;;;8.15;4.47;;;5.70;94.00;;;;;;5032830;28;20124;-66
2024/02/02 10:25:01;;;;;;;8.68;4.70;;;5.70;94.10;;;;;;5023815;28;20029;-66
2024/02/02 10:27:35;;;;;;;7.63;3.75;;;5.70;94.20;;;;;;5027452;28;20022;-66
2024/02/02 10:30:21;;;;;;;8.68;4.43;;;5.70;94.40;;;;;;5017442;28;20506;-67
2024/02/02 10:33:20;;;;;;;7.90;4.38;;;5.70;94.50;;;;;;5016983;28;20026;-66
2024/02/02 10:36:05;;;;;;;10.32;5.05;;;5.70;94.60;;;;;;5027443;28;20116;-66
2024/02/02 10:38:59;;;;;;;7.45;4.80;;;5.70;94.60;;;;;;5028524;28;20042;-66
2024/02/02 10:41:56;;;;;;;12.07;5.30;;;5.70;94.50;;;;;;5025972;28;20084;-66
2024/02/02 10:44:45;;;;;;;8.27;4.03;;;5.80;94.60;;;;;;5021703;28;20033;-65
2024/02/02 10:47:36;;;;;;;7.65;3.97;;;5.80;94.70;;;;;;5022276;28;20154;-67
2024/02/02 10:50:15;;;;;;;9.05;5.00;;;5.80;94.50;;;;;;5023305;28;20026;-67
2024/02/02 10:52:56;;;;;;;8.57;4.57;;;5.90;94.50;;;;;;5022069;28;20034;-66
2024/02/02 10:55:21;;;;;;;9.93;4.60;;;5.80;94.50;;;;;;5030844;28;20056;-65
2024/02/02 10:58:28;;;;;;;7.38;4.32;;;5.90;94.40;;;;;;5026397;28;20108;-68
2024/02/02 11:00:58;;;;;;;8.50;4.90;;;5.90;94.50;;;;;;5028714;28;20116;-65
2024/02/02 11:03:38;;;;;;;9.60;4.80;;;5.90;94.50;;;;;;5030659;28;20490;-65
2024/02/02 11:06:23;;;;;;;14.18;5.32;;;5.90;94.60;;;;;;5032201;28;20052;-66
2024/02/02 11:08:56;;;;;;;9.85;4.28;;;5.90;94.70;;;;;;5027981;28;20084;-66
2024/02/02 11:11:25;;;;;;;8.73;4.75;;;5.90;94.70;;;;;;5009352;28;20105;-66
2024/02/02 11:14:19;;;;;;;9.00;4.82;;;5.90;94.70;;;;;;5027828;28;20103;-66
2024/02/02 11:17:01;;;;;;;12.80;4.95;;;5.90;94.90;;;;;;5027179;28;20435;-65
2024/02/02 11:20:08;;;;;;;10.85;4.35;;;6.00;94.90;;;;;;5027539;28;20074;-66
2024/02/02 11:23:10;;;;;;;7.55;4.15;;;6.00;95.10;;;;;;4981430;28;20501;-66
2024/02/02 11:25:40;;;;;;;13.13;5.13;;;6.00;95.10;;;;;;4979759;28;20077;-65
2024/02/02 11:28:25;;;;;;;12.03;4.77;;;6.10;95.00;;;;;;5014241;28;20485;-66
2024/02/02 11:31:08;;;;;;;8.43;4.47;;;6.00;95.10;;;;;;5023506;28;20078;-67
2024/02/02 11:33:51;;;;;;;7.18;4.50;;;6.10;95.10;;;;;;5028921;28;20325;-67
2024/02/02 11:36:55;;;;;;;7.32;4.32;;;6.10;95.00;;;;;;5027297;28;20045;-66
2024/02/02 11:39:36;;;;;;;7.57;4.40;;;6.10;95.10;;;;;;4959534;28;20168;-65
2024/02/02 11:42:03;;;;;;;9.82;4.82;;;6.10;95.10;;;;;;5020346;28;20104;-66
2024/02/02 11:44:30;;;;;;;12.75;4.82;;;6.10;95.10;;;;;;5025756;28;20063;-66
2024/02/02 11:46:58;;;;;;;7.63;4.55;;;6.10;95.10;;;;;;5025755;28;20057;-66
2024/02/02 11:49:30;;;;;;;7.35;4.43;;;6.10;95.20;;;;;;5024540;28;20187;-66
2024/02/02 11:52:12;;;;;;;11.75;5.03;;;6.10;95.20;;;;;;5023761;28;20029;-66
2024/02/02 11:54:49;;;;;;;14.35;5.53;;;6.10;95.20;;;;;;5025152;28;20041;-67
2024/02/02 11:57:18;;;;;;;9.65;4.55;;;6.10;95.20;;;;;;5030929;28;20687;-65
2024/02/02 11:59:47;;;;;;;7.22;4.45;;;6.10;95.20;;;;;;5023287;28;20056;-66
2024/02/02 12:02:47;;;;;;;9.80;4.82;;;6.20;95.20;;;;;;5030005;28;20037;-68
2024/02/02 12:05:18;;;;;;;8.13;3.97;;;6.20;95.20;;;;;;5022894;28;20021;-66
2024/02/02 12:07:56;;;;;;;6.55;3.83;;;6.20;95.20;;;;;;5025006;28;20044;-65
2024/02/02 12:10:25;;;;;;;13.15;4.63;;;6.20;95.20;;;;;;5018062;28;20070;-66
2024/02/02 12:13:02;;;;;;;7.13;4.45;;;6.30;95.30;;;;;;5021250;28;20114;-65
2024/02/02 12:15:28;;;;;;;9.13;5.60;;;6.30;95.20;;;;;;5022174;28;20059;-66
2024/02/02 12:17:54;;;;;;;9.20;5.65;;;6.30;95.20;;;;;;5022813;28;20021;-66
2024/02/02 12:20:21;;;;;;;9.40;4.75;;;6.30;95.20;;;;;;5030601;28;20362;-66
2024/02/02 12:22:47;;;;;;;8.57;4.60;;;6.30;95.20;;;;;;5031363;28;20441;-66
2024/02/02 12:25:14;;;;;;;11.25;4.95;;;6.30;95.20;;;;;;5021519;28;20044;-67
2024/02/02 12:27:40;;;;;;;11.75;4.93;;;6.30;95.20;;;;;;5029326;28;20029;-66
2024/02/02 12:30:07;;;;;;;14.18;6.00;;;6.30;95.10;;;;;;5006583;28;20033;-65
2024/02/02 12:32:33;;;;;;;13.48;4.90;;;6.40;95.20;;;;;;5011561;28;20044;-66
2024/02/02 12:34:59;;;;;;;10.00;4.80;;;6.40;95.20;;;;;;5018069;28;20041;-66
2024/02/02 12:37:25;;;;;;;9.23;5.00;;;6.40;95.20;;;;;;5031225;28;20463;-68
2024/02/02 12:39:53;;;;;;;8.25;5.07;;;6.40;95.40;;;;;;5029709;28;20112;-66
2024/02/02 12:42:22;;;;;;;8.68;3.92;;;6.40;95.30;;;;;;5025932;28;20056;-66
2024/02/02 12:44:50;;;;;;;7.15;4.90;;;6.40;95.30;;;;;;5021371;28;20045;-65
2024/02/02 12:47:25;;;;;;;9.38;4.50;;;6.40;95.40;;;;;;5024844;28;20105;-66
2024/02/02 12:49:52;;;;;;;11.35;4.32;;;6.40;95.40;;;;;;5032455;28;20045;-67
2024/02/02 12:52:17;;;;;;;7.72;4.47;;;6.40;95.40;;;;;;5026092;28;20093;-66
2024/02/02 12:54:43;;;;;;;9.13;5.18;;;6.50;95.40;;;;;;5034917;28;20088;-66
2024/02/02 12:57:09;;;;;;;7.43;4.05;;;6.50;95.30;;;;;;5032138;28;20030;-66
2024/02/02 12:59:34;;;;;;;9.93;5.32;;;6.50;95.40;;;;;;5020046;28;20026;-66
2024/02/02 13:02:00;;;;;;;14.25;5.18;;;6.50;95.50;;;;;;5029178;28;20108;-66
2024/02/02 13:04:26;;;;;;;10.65;5.13;;;6.50;95.60;;;;;;5024064;28;20113;-67
2024/02/02 13:06:52;;;;;;;8.60;5.07;;;6.50;95.60;;;;;;5029635;28;20117;-67
2024/02/02 13:09:29;;;;;;;7.15;4.22;;;6.60;95.60;;;;;;5022969;28;20466;-66